Time;durP1;ratioP1;P1;durP2;ratioP2;P2;SDS_P1;SDS_P2;PMS_P1;PMS_P2;Temp;Humidity;BMP_temperature;BMP_pressure;BME280_temperature;BME280_humidity;BME280_pressure;Samples;Min_cycle;Max_cycle;Signal;HPM_P1;HPM_P2
2022/03/29 00:01:05;;;;;;;0.40;0.40;;;9.10;52.20;;;;;;5036542;28;20174;-66
2022/03/29 00:03:31;;;;;;;0.30;0.30;;;9.10;53.30;;;;;;5036778;28;20644;-65
2022/03/29 00:05:57;;;;;;;0.30;0.30;;;9.00;53.70;;;;;;5036658;28;20251;-66
2022/03/29 00:08:22;;;;;;;0.30;0.30;;;9.00;54.10;;;;;;5036488;28;20659;-65
2022/03/29 00:10:48;;;;;;;0.30;0.30;;;8.80;53.90;;;;;;5036482;28;20200;-65
2022/03/29 00:13:14;;;;;;;0.30;0.30;;;8.80;54.80;;;;;;5036599;28;20554;-66
2022/03/29 00:15:39;;;;;;;0.63;0.63;;;8.80;55.10;;;;;;5036813;28;20180;-65
2022/03/29 00:18:05;;;;;;;0.30;0.30;;;8.90;54.90;;;;;;5036199;28;20451;-65
2022/03/29 00:20:31;;;;;;;0.30;0.30;;;9.00;54.70;;;;;;5051533;28;20172;-65
2022/03/29 00:22:56;;;;;;;0.33;0.33;;;9.00;54.50;;;;;;5036333;28;20183;-65
2022/03/29 00:25:22;;;;;;;0.30;0.30;;;9.10;54.20;;;;;;5036376;28;20167;-66
2022/03/29 00:27:51;;;;;;;0.30;0.30;;;9.10;54.00;;;;;;5036240;28;20190;-65
2022/03/29 00:30:17;;;;;;;0.30;0.30;;;9.10;53.50;;;;;;5036082;28;20408;-66
2022/03/29 00:32:44;;;;;;;0.40;0.40;;;9.20;54.20;;;;;;5036267;28;20182;-65
2022/03/29 00:35:10;;;;;;;0.52;0.52;;;9.10;54.80;;;;;;5036349;28;20512;-66
2022/03/29 00:37:40;;;;;;;0.30;0.30;;;9.00;54.20;;;;;;5036057;28;20256;-66
2022/03/29 00:40:08;;;;;;;0.40;0.40;;;8.90;54.40;;;;;;5034959;28;20198;-66
2022/03/29 00:42:34;;;;;;;0.40;0.40;;;8.90;55.70;;;;;;5036165;28;20634;-65
2022/03/29 00:45:00;;;;;;;0.40;0.40;;;9.00;56.00;;;;;;5036224;28;20226;-65
2022/03/29 00:47:25;;;;;;;0.32;0.32;;;9.10;55.60;;;;;;5035910;28;20285;-66
2022/03/29 00:49:51;;;;;;;0.40;0.40;;;9.10;55.00;;;;;;5035764;28;20580;-66
2022/03/29 00:52:18;;;;;;;0.40;0.40;;;9.20;55.60;;;;;;5035976;28;20176;-66
2022/03/29 00:54:44;;;;;;;0.30;0.30;;;9.20;55.30;;;;;;5033479;28;20253;-65
2022/03/29 00:57:11;;;;;;;0.40;0.40;;;9.10;55.00;;;;;;5035609;28;20258;-66
2022/03/29 00:59:45;;;;;;;0.35;0.35;;;9.10;55.20;;;;;;5035781;28;20642;-66
2022/03/29 01:02:10;;;;;;;0.35;0.35;;;9.10;54.60;;;;;;5035770;28;20199;-66
2022/03/29 01:04:37;;;;;;;0.40;0.40;;;9.20;54.40;;;;;;5035893;28;20635;-65
2022/03/29 01:07:03;;;;;;;0.30;0.30;;;9.20;54.00;;;;;;5035674;28;20188;-65
2022/03/29 01:09:30;;;;;;;0.40;0.40;;;9.20;54.10;;;;;;5035346;28;20178;-65
2022/03/29 01:11:57;;;;;;;0.30;0.30;;;9.10;53.90;;;;;;5036149;28;20177;-66
2022/03/29 01:14:25;;;;;;;0.30;0.30;;;9.20;55.00;;;;;;5035526;28;20582;-65
2022/03/29 01:19:37;;;;;;;0.50;0.50;;;9.20;55.20;;;;;;5035480;28;20182;-65
2022/03/29 01:22:09;;;;;;;0.30;0.30;;;9.10;55.30;;;;;;5035259;28;20600;-66
2022/03/29 01:24:36;;;;;;;0.30;0.30;;;9.10;56.00;;;;;;5035284;28;20532;-65
2022/03/29 01:27:04;;;;;;;0.40;0.40;;;9.10;55.80;;;;;;5035526;28;20188;-65
2022/03/29 01:29:34;;;;;;;0.30;0.30;;;9.10;56.00;;;;;;5035129;28;20592;-65
2022/03/29 01:32:06;;;;;;;1.63;1.52;;;9.10;55.40;;;;;;5035270;28;20174;-66
2022/03/29 01:34:37;;;;;;;0.30;0.30;;;9.10;55.20;;;;;;5035254;28;20175;-66
2022/03/29 01:37:06;;;;;;;0.40;0.40;;;9.10;55.30;;;;;;5035091;28;20199;-66
2022/03/29 01:39:36;;;;;;;0.30;0.30;;;9.10;54.70;;;;;;5033498;28;20172;-66
2022/03/29 01:42:03;;;;;;;0.32;0.32;;;9.20;54.70;;;;;;5032958;28;20656;-66
2022/03/29 01:44:29;;;;;;;0.40;0.40;;;9.10;54.70;;;;;;5033580;28;20226;-66
2022/03/29 01:46:55;;;;;;;1.55;1.45;;;9.10;55.30;;;;;;5034133;28;20172;-66
2022/03/29 01:49:21;;;;;;;0.30;0.30;;;9.00;54.80;;;;;;5034606;28;20521;-65
2022/03/29 01:51:47;;;;;;;0.30;0.30;;;9.00;55.10;;;;;;5034638;28;20853;-66
2022/03/29 01:54:13;;;;;;;0.30;0.30;;;8.90;55.00;;;;;;5034912;28;20599;-66
2022/03/29 01:56:38;;;;;;;0.50;0.50;;;8.80;56.20;;;;;;5034601;28;20290;-66
2022/03/29 01:59:06;;;;;;;0.40;0.40;;;8.90;56.00;;;;;;5034479;28;20406;-66
2022/03/29 02:01:45;;;;;;;0.32;0.32;;;8.90;55.80;;;;;;5034716;28;20171;-65
2022/03/29 02:04:11;;;;;;;1.67;1.20;;;9.00;55.80;;;;;;5034536;28;20167;-66
2022/03/29 02:06:37;;;;;;;0.30;0.30;;;9.00;55.30;;;;;;5034503;28;20646;-66
2022/03/29 02:09:08;;;;;;;0.30;0.30;;;8.90;55.00;;;;;;5034265;28;20202;-65
2022/03/29 02:11:35;;;;;;;0.30;0.30;;;8.80;55.00;;;;;;5033277;28;20167;-66
2022/03/29 02:14:01;;;;;;;0.30;0.30;;;8.90;55.40;;;;;;5034412;28;20665;-66
2022/03/29 02:16:27;;;;;;;0.30;0.30;;;8.90;55.60;;;;;;5034222;28;20535;-65
2022/03/29 02:18:53;;;;;;;0.40;0.40;;;8.90;55.30;;;;;;5033974;28;20196;-65
2022/03/29 02:21:19;;;;;;;0.70;0.70;;;8.90;55.30;;;;;;5034099;28;20429;-65
2022/03/29 02:23:45;;;;;;;0.40;0.40;;;9.00;55.90;;;;;;5034632;28;20651;-66
2022/03/29 02:26:10;;;;;;;0.30;0.30;;;8.90;56.20;;;;;;5034254;28;20163;-66
2022/03/29 02:28:36;;;;;;;0.30;0.30;;;8.90;55.60;;;;;;5034164;28;20425;-65
2022/03/29 02:31:02;;;;;;;0.30;0.30;;;8.90;55.70;;;;;;5033918;28;20198;-66
2022/03/29 02:33:27;;;;;;;0.30;0.30;;;8.90;55.70;;;;;;5034404;28;20225;-65
2022/03/29 02:35:54;;;;;;;0.30;0.30;;;8.90;55.30;;;;;;5034173;28;20171;-65
2022/03/29 02:38:20;;;;;;;0.30;0.30;;;8.90;55.80;;;;;;5033725;28;20202;-66
2022/03/29 02:40:48;;;;;;;0.40;0.40;;;8.90;56.50;;;;;;5033850;28;20637;-65
2022/03/29 02:43:14;;;;;;;0.30;0.30;;;8.70;56.30;;;;;;5033940;28;20177;-66
2022/03/29 02:45:40;;;;;;;0.30;0.30;;;8.70;56.60;;;;;;5033782;28;20168;-65
2022/03/29 02:48:06;;;;;;;0.30;0.30;;;8.70;56.30;;;;;;5033667;28;20205;-66
2022/03/29 02:50:32;;;;;;;0.30;0.30;;;8.80;56.40;;;;;;5033962;28;20401;-65
2022/03/29 02:53:01;;;;;;;0.60;0.60;;;8.80;55.80;;;;;;5033767;28;20425;-65
2022/03/29 02:55:29;;;;;;;0.30;0.30;;;8.80;56.00;;;;;;5033808;28;20210;-65
2022/03/29 02:57:56;;;;;;;0.40;0.40;;;8.80;55.40;;;;;;5033653;28;20207;-65
2022/03/29 03:00:22;;;;;;;0.40;0.40;;;8.90;55.60;;;;;;5033429;28;20168;-65
2022/03/29 03:02:57;;;;;;;0.30;0.30;;;8.90;56.70;;;;;;5033084;28;20171;-65
2022/03/29 03:05:26;;;;;;;0.70;0.70;;;8.90;56.30;;;;;;5033674;28;20201;-65
2022/03/29 03:07:52;;;;;;;0.30;0.30;;;8.80;56.30;;;;;;5033532;28;20278;-65
2022/03/29 03:10:18;;;;;;;2.90;2.80;;;8.80;56.50;;;;;;5033143;28;20205;-65
2022/03/29 03:12:46;;;;;;;0.30;0.30;;;8.80;56.80;;;;;;5033591;28;20178;-65
2022/03/29 03:15:23;;;;;;;0.30;0.30;;;8.80;57.40;;;;;;5033595;28;20166;-65
2022/03/29 03:17:55;;;;;;;0.30;0.30;;;8.80;57.70;;;;;;5033202;28;20676;-65
2022/03/29 03:20:22;;;;;;;0.32;0.32;;;8.80;57.40;;;;;;5033204;28;20221;-66
2022/03/29 03:22:48;;;;;;;0.30;0.30;;;8.80;57.40;;;;;;5033162;28;20190;-65
2022/03/29 03:25:14;;;;;;;0.40;0.40;;;8.80;57.50;;;;;;5033306;28;20224;-66
2022/03/29 03:27:40;;;;;;;0.33;0.33;;;8.80;57.40;;;;;;5033545;28;20664;-66
2022/03/29 03:30:10;;;;;;;0.30;0.30;;;8.80;57.00;;;;;;5033184;28;20169;-65
2022/03/29 03:32:35;;;;;;;0.40;0.40;;;8.80;57.40;;;;;;5033200;28;20186;-65
2022/03/29 03:35:01;;;;;;;0.40;0.40;;;8.80;57.10;;;;;;5033449;28;20171;-66
2022/03/29 03:37:26;;;;;;;0.47;0.47;;;8.80;57.30;;;;;;5033159;28;20207;-66
2022/03/29 03:39:53;;;;;;;0.30;0.30;;;8.80;57.50;;;;;;5033154;28;20167;-65
2022/03/29 03:42:18;;;;;;;0.30;0.30;;;8.70;57.60;;;;;;5033144;28;20169;-66
2022/03/29 03:44:44;;;;;;;0.40;0.40;;;8.70;57.90;;;;;;5033454;28;20171;-65
2022/03/29 03:47:10;;;;;;;0.30;0.30;;;8.70;58.00;;;;;;5033215;28;20218;-65
2022/03/29 03:49:37;;;;;;;0.40;0.40;;;8.70;58.20;;;;;;5033002;28;20172;-65
2022/03/29 03:52:04;;;;;;;0.40;0.40;;;8.70;57.90;;;;;;5033192;28;20407;-66
2022/03/29 03:54:32;;;;;;;0.32;0.32;;;8.70;58.10;;;;;;5032969;28;20577;-65
2022/03/29 03:56:57;;;;;;;0.40;0.40;;;8.70;57.90;;;;;;5032927;28;20195;-65
2022/03/29 03:59:23;;;;;;;0.30;0.30;;;8.80;58.30;;;;;;5032963;28;20669;-66
2022/03/29 04:01:49;;;;;;;0.30;0.30;;;8.60;58.10;;;;;;5032917;28;20174;-65
2022/03/29 04:04:15;;;;;;;0.30;0.30;;;8.50;58.50;;;;;;5031639;28;20641;-65
2022/03/29 04:06:40;;;;;;;0.40;0.40;;;8.50;58.80;;;;;;5033014;28;20463;-66
2022/03/29 04:09:06;;;;;;;0.30;0.30;;;8.50;58.90;;;;;;5032728;28;20176;-65
2022/03/29 04:11:32;;;;;;;0.83;0.83;;;8.60;58.70;;;;;;5032896;28;20172;-66
2022/03/29 04:13:58;;;;;;;0.40;0.40;;;8.60;58.40;;;;;;5032954;28;20402;-65
2022/03/29 04:16:25;;;;;;;0.82;0.82;;;8.70;57.90;;;;;;5036437;28;20708;-65
2022/03/29 04:18:51;;;;;;;0.38;0.38;;;8.70;57.70;;;;;;5036387;28;20196;-66
2022/03/29 04:21:17;;;;;;;0.40;0.40;;;8.70;58.50;;;;;;5033762;28;20274;-65
2022/03/29 04:23:43;;;;;;;0.83;0.83;;;8.60;58.70;;;;;;5036634;28;20684;-65
2022/03/29 04:26:09;;;;;;;0.40;0.40;;;8.60;58.70;;;;;;5036359;28;20160;-66
2022/03/29 04:28:34;;;;;;;0.30;0.30;;;8.50;58.90;;;;;;5036329;28;20274;-66
2022/03/29 04:31:00;;;;;;;0.37;0.37;;;8.50;60.10;;;;;;5036186;28;20410;-65
2022/03/29 04:33:27;;;;;;;0.40;0.40;;;8.50;59.90;;;;;;5036381;28;20178;-66
2022/03/29 04:35:55;;;;;;;0.82;0.82;;;8.60;59.80;;;;;;5035993;28;20199;-66
2022/03/29 04:38:21;;;;;;;0.40;0.40;;;8.60;59.70;;;;;;5035898;28;20208;-65
2022/03/29 04:40:47;;;;;;;0.38;0.38;;;8.50;59.30;;;;;;5035809;28;20178;-66
2022/03/29 04:43:13;;;;;;;0.30;0.30;;;8.60;59.60;;;;;;5036074;28;20531;-66
2022/03/29 04:45:38;;;;;;;0.37;0.37;;;8.60;59.20;;;;;;5035890;28;20253;-66
2022/03/29 04:48:05;;;;;;;0.30;0.30;;;8.60;58.60;;;;;;5035873;28;20182;-66
2022/03/29 04:50:30;;;;;;;0.60;0.60;;;8.60;58.40;;;;;;5035643;28;20198;-66
2022/03/29 04:52:56;;;;;;;0.97;0.97;;;8.60;58.90;;;;;;5035938;28;20175;-66
2022/03/29 04:55:22;;;;;;;0.40;0.40;;;8.60;58.60;;;;;;5035894;28;20167;-65
2022/03/29 04:57:49;;;;;;;0.90;0.90;;;8.60;58.90;;;;;;5035778;28;20210;-66
2022/03/29 05:00:20;;;;;;;0.40;0.40;;;8.70;59.50;;;;;;5035538;28;20168;-65
2022/03/29 05:02:47;;;;;;;0.40;0.40;;;8.70;59.70;;;;;;5035804;28;20176;-65
2022/03/29 05:05:13;;;;;;;0.30;0.30;;;8.60;59.90;;;;;;5035629;28;20167;-65
2022/03/29 05:07:40;;;;;;;0.38;0.38;;;8.50;60.10;;;;;;5035493;28;20209;-65
2022/03/29 05:10:08;;;;;;;0.35;0.35;;;8.50;61.00;;;;;;5035441;28;20598;-65
2022/03/29 05:12:40;;;;;;;0.30;0.30;;;8.50;61.20;;;;;;5035591;28;20659;-66
2022/03/29 05:15:08;;;;;;;0.30;0.30;;;8.50;62.20;;;;;;5035645;28;20533;-65
2022/03/29 05:17:34;;;;;;;0.40;0.40;;;8.50;62.10;;;;;;5035237;28;20764;-66
2022/03/29 05:20:00;;;;;;;0.30;0.30;;;8.50;61.60;;;;;;5035209;28;20171;-66
2022/03/29 05:22:26;;;;;;;0.40;0.40;;;8.50;62.40;;;;;;5035232;28;20659;-65
2022/03/29 05:24:51;;;;;;;0.30;0.30;;;8.60;61.90;;;;;;5034973;28;20297;-65
2022/03/29 05:27:17;;;;;;;0.40;0.40;;;8.50;61.10;;;;;;5035184;28;20252;-65
2022/03/29 05:29:43;;;;;;;0.30;0.30;;;8.60;61.10;;;;;;5035082;28;20237;-65
2022/03/29 05:32:08;;;;;;;0.30;0.30;;;8.60;61.00;;;;;;5035262;28;20237;-65
2022/03/29 05:34:34;;;;;;;0.57;0.57;;;8.70;60.40;;;;;;5035042;28;20262;-66
2022/03/29 05:37:00;;;;;;;0.40;0.40;;;8.70;60.90;;;;;;5034891;28;20286;-66
2022/03/29 05:39:25;;;;;;;1.43;1.33;;;8.70;60.60;;;;;;5034798;28;20203;-65
2022/03/29 05:41:51;;;;;;;0.33;0.33;;;8.70;60.40;;;;;;5034996;28;20237;-66
2022/03/29 05:44:16;;;;;;;0.40;0.40;;;8.80;60.40;;;;;;5035048;28;20229;-65
2022/03/29 05:49:27;;;;;;;0.35;0.35;;;8.90;58.70;;;;;;5034637;28;20166;-65
2022/03/29 05:51:53;;;;;;;0.30;0.30;;;9.00;60.20;;;;;;5034692;28;20589;-66
2022/03/29 05:54:19;;;;;;;0.30;0.30;;;9.00;59.70;;;;;;5034823;28;20163;-65
2022/03/29 05:56:45;;;;;;;0.40;0.40;;;8.90;60.60;;;;;;5034554;28;20449;-65
2022/03/29 05:59:10;;;;;;;0.50;0.50;;;9.00;60.90;;;;;;5034530;28;20452;-66
2022/03/29 06:01:38;;;;;;;0.40;0.40;;;9.10;60.80;;;;;;5034537;28;20165;-66
2022/03/29 06:04:06;;;;;;;0.65;0.65;;;9.20;61.10;;;;;;5034575;28;20222;-65
2022/03/29 06:06:34;;;;;;;0.40;0.40;;;9.20;59.80;;;;;;5034428;28;20175;-66
2022/03/29 06:09:00;;;;;;;0.40;0.40;;;9.40;59.80;;;;;;5034222;28;20187;-65
2022/03/29 06:11:26;;;;;;;0.30;0.30;;;9.50;59.90;;;;;;5034546;28;20218;-65
2022/03/29 06:13:51;;;;;;;0.30;0.30;;;9.70;60.10;;;;;;5034265;28;20414;-65
2022/03/29 06:16:17;;;;;;;0.30;0.30;;;9.90;59.90;;;;;;5034652;28;20176;-66
2022/03/29 06:18:43;;;;;;;0.30;0.30;;;10.10;58.30;;;;;;5034093;28;20205;-66
2022/03/29 06:21:09;;;;;;;0.40;0.40;;;10.10;58.10;;;;;;5033999;28;20624;-65
2022/03/29 06:23:34;;;;;;;0.40;0.40;;;10.20;58.40;;;;;;5049977;28;20181;-66
2022/03/29 06:26:00;;;;;;;0.30;0.30;;;10.30;58.50;;;;;;5034181;28;20451;-66
2022/03/29 06:28:26;;;;;;;0.53;0.53;;;10.50;57.60;;;;;;5034020;28;20198;-65
2022/03/29 06:30:51;;;;;;;0.30;0.30;;;10.70;57.30;;;;;;5032654;28;20636;-65
2022/03/29 06:33:17;;;;;;;0.30;0.30;;;10.70;57.60;;;;;;5034095;28;20523;-66
2022/03/29 06:35:43;;;;;;;0.30;0.30;;;10.80;56.20;;;;;;5034098;28;20205;-66
2022/03/29 06:38:08;;;;;;;0.30;0.30;;;10.90;56.30;;;;;;5033137;28;20216;-66
2022/03/29 06:40:35;;;;;;;0.50;0.50;;;11.20;56.30;;;;;;5033763;28;20182;-66
2022/03/29 06:43:01;;;;;;;0.30;0.30;;;11.30;56.50;;;;;;5034103;28;20201;-66
2022/03/29 06:45:28;;;;;;;0.30;0.30;;;11.50;56.50;;;;;;5033824;28;20547;-66
2022/03/29 06:47:54;;;;;;;0.30;0.30;;;11.60;55.70;;;;;;5033716;28;20247;-65
2022/03/29 06:50:20;;;;;;;0.45;0.45;;;11.70;55.80;;;;;;5033633;28;20187;-66
2022/03/29 06:52:47;;;;;;;0.40;0.40;;;11.90;55.60;;;;;;5033810;28;20179;-65
2022/03/29 06:55:15;;;;;;;0.35;0.35;;;11.90;55.10;;;;;;5033809;28;20467;-66
2022/03/29 06:57:41;;;;;;;0.45;0.45;;;12.30;54.80;;;;;;5033740;28;20210;-66
2022/03/29 07:00:12;;;;;;;0.30;0.30;;;12.50;53.30;;;;;;5033473;28;20538;-66
2022/03/29 07:02:38;;;;;;;0.50;0.50;;;12.80;54.10;;;;;;5033842;28;20166;-65
2022/03/29 07:05:04;;;;;;;1.57;1.00;;;12.90;53.90;;;;;;5033342;28;20175;-66
2022/03/29 07:07:30;;;;;;;0.40;0.40;;;13.00;53.70;;;;;;5032447;28;20580;-65
2022/03/29 07:12:51;;;;;;;0.38;0.38;;;13.50;50.20;;;;;;5033978;28;20542;-65
2022/03/29 07:15:17;;;;;;;0.40;0.40;;;13.90;47.80;;;;;;5033438;28;20186;-66
2022/03/29 07:17:47;;;;;;;0.30;0.30;;;14.20;50.40;;;;;;5033151;28;20213;-66
2022/03/29 07:20:15;;;;;;;0.40;0.37;;;14.50;49.10;;;;;;5033206;28;20171;-66
2022/03/29 07:22:42;;;;;;;0.50;0.50;;;14.90;48.40;;;;;;5033274;28;20456;-66
2022/03/29 07:25:11;;;;;;;0.30;0.30;;;15.10;43.50;;;;;;5033247;28;20445;-66
2022/03/29 07:27:36;;;;;;;0.30;0.30;;;15.20;43.60;;;;;;5033298;28;20647;-66
2022/03/29 07:30:04;;;;;;;0.47;0.47;;;15.50;42.50;;;;;;5033163;28;20491;-66
2022/03/29 07:32:29;;;;;;;0.40;0.40;;;15.70;40.80;;;;;;5033443;28;20208;-66
2022/03/29 07:34:56;;;;;;;1.27;1.17;;;15.70;39.20;;;;;;5033416;28;20886;-66
2022/03/29 07:37:22;;;;;;;0.30;0.30;;;15.90;36.90;;;;;;5033342;28;20210;-66
2022/03/29 07:39:48;;;;;;;0.30;0.30;;;16.20;37.00;;;;;;5033254;28;20454;-66
2022/03/29 07:42:14;;;;;;;0.30;0.30;;;16.50;40.80;;;;;;5033308;28;20408;-66
2022/03/29 07:44:40;;;;;;;1.13;1.10;;;16.90;36.30;;;;;;5033400;28;20928;-66
2022/03/29 07:47:06;;;;;;;0.50;0.50;;;17.30;33.70;;;;;;5033167;28;20429;-64
2022/03/29 07:49:31;;;;;;;0.40;0.40;;;17.90;33.70;;;;;;5035193;28;20652;-64
2022/03/29 07:51:57;;;;;;;1.23;0.80;;;18.30;34.30;;;;;;5036905;28;20177;-64
2022/03/29 07:54:24;;;;;;;0.30;0.30;;;18.50;33.50;;;;;;5036968;28;20201;-64
2022/03/29 07:56:50;;;;;;;0.40;0.40;;;18.50;31.50;;;;;;5036829;28;20240;-63
2022/03/29 07:59:15;;;;;;;0.40;0.40;;;17.40;31.50;;;;;;5036635;28;20444;-63
2022/03/29 08:01:41;;;;;;;0.30;0.30;;;17.70;32.30;;;;;;5037010;28;20649;-63
2022/03/29 08:04:09;;;;;;;1.13;0.50;;;17.90;31.40;;;;;;5036698;28;20189;-63
2022/03/29 08:06:35;;;;;;;1.47;1.37;;;18.30;31.10;;;;;;5037041;28;20574;-64
2022/03/29 08:09:00;;;;;;;0.77;0.77;;;18.70;30.00;;;;;;5036629;28;20563;-63
2022/03/29 08:11:27;;;;;;;1.00;0.87;;;18.70;29.50;;;;;;5036723;28;20214;-64
2022/03/29 08:13:54;;;;;;;3.87;3.67;;;18.90;29.20;;;;;;5036446;28;20167;-64
2022/03/29 08:16:20;;;;;;;0.30;0.30;;;19.40;28.90;;;;;;5036562;28;20775;-64
2022/03/29 08:18:45;;;;;;;0.37;0.37;;;19.90;29.10;;;;;;5036183;28;20460;-63
2022/03/29 08:23:56;;;;;;;0.40;0.40;;;20.40;27.60;;;;;;5036674;28;20183;-64
2022/03/29 08:26:22;;;;;;;1.67;1.57;;;20.60;27.40;;;;;;5036405;28;20895;-64
2022/03/29 08:28:48;;;;;;;1.63;1.53;;;21.00;27.80;;;;;;5036187;28;20433;-64
2022/03/29 08:31:13;;;;;;;1.23;1.23;;;21.50;27.80;;;;;;5036325;28;20677;-64
2022/03/29 08:33:39;;;;;;;1.67;1.37;;;21.40;26.90;;;;;;5036204;28;20245;-63
2022/03/29 08:36:05;;;;;;;0.30;0.30;;;22.30;28.00;;;;;;5036214;28;20184;-64
2022/03/29 08:38:31;;;;;;;0.90;0.90;;;23.10;27.00;;;;;;5035952;28;20677;-64
2022/03/29 08:40:59;;;;;;;0.87;0.80;;;23.90;26.20;;;;;;5035854;28;20179;-64
2022/03/29 08:43:30;;;;;;;0.50;0.50;;;24.90;24.90;;;;;;5036073;28;20418;-64
2022/03/29 08:45:57;;;;;;;0.80;0.80;;;25.50;24.40;;;;;;5051562;28;20424;-65
2022/03/29 08:48:25;;;;;;;0.30;0.30;;;26.30;24.20;;;;;;5036095;28;20494;-64
2022/03/29 08:50:52;;;;;;;0.90;0.90;;;26.70;23.10;;;;;;5035836;28;20930;-63
2022/03/29 08:53:20;;;;;;;1.80;1.80;;;25.70;23.80;;;;;;5035978;28;20412;-65
2022/03/29 08:55:47;;;;;;;0.60;0.60;;;25.50;24.00;;;;;;5035964;28;20417;-65
2022/03/29 08:58:13;;;;;;;0.30;0.30;;;25.50;25.80;;;;;;5034438;28;20560;-64
2022/03/29 09:00:41;;;;;;;1.07;1.07;;;26.30;25.10;;;;;;5034808;28;20416;-64
2022/03/29 09:03:07;;;;;;;0.50;0.50;;;26.90;23.80;;;;;;5035841;28;20409;-65
2022/03/29 09:05:33;;;;;;;1.73;1.60;;;26.90;22.50;;;;;;5035690;28;20409;-64
2022/03/29 09:08:02;;;;;;;2.13;1.20;;;26.50;23.10;;;;;;5035624;28;20842;-64
2022/03/29 09:10:48;;;;;;;0.87;0.87;;;26.20;24.00;;;;;;5035384;28;20171;-64
2022/03/29 09:13:23;;;;;;;0.77;0.77;;;26.00;23.60;;;;;;5033404;28;20927;-64
2022/03/29 09:15:50;;;;;;;1.00;1.00;;;25.90;24.20;;;;;;5033557;28;20774;-64
2022/03/29 09:18:16;;;;;;;0.77;0.60;;;25.80;23.70;;;;;;5034596;28;20527;-64
2022/03/29 09:20:45;;;;;;;0.40;0.40;;;25.00;23.70;;;;;;5034686;28;20820;-64
2022/03/29 09:23:17;;;;;;;0.80;0.80;;;25.10;24.10;;;;;;5035132;28;20852;-65
2022/03/29 09:25:47;;;;;;;0.43;0.43;;;24.50;24.20;;;;;;5035068;28;20833;-64
2022/03/29 09:28:15;;;;;;;0.50;0.50;;;23.90;24.40;;;;;;5035266;28;20986;-63
2022/03/29 09:30:44;;;;;;;0.60;0.60;;;23.30;24.90;;;;;;5034958;28;20440;-65
2022/03/29 09:33:16;;;;;;;0.30;0.30;;;23.20;25.00;;;;;;5035177;28;20435;-64
2022/03/29 09:35:52;;;;;;;1.50;0.90;;;23.50;25.50;;;;;;5050458;28;20808;-65
2022/03/29 09:38:26;;;;;;;0.57;0.57;;;23.90;25.00;;;;;;5034738;28;20468;-64
2022/03/29 09:40:51;;;;;;;1.23;1.13;;;24.40;24.70;;;;;;5034903;28;20400;-65
2022/03/29 09:43:24;;;;;;;0.30;0.30;;;24.40;24.70;;;;;;5035068;28;20426;-64
2022/03/29 09:45:52;;;;;;;0.30;0.30;;;24.10;24.80;;;;;;5035113;28;20169;-64
2022/03/29 09:48:21;;;;;;;0.30;0.30;;;23.80;25.10;;;;;;5034841;28;20429;-64
2022/03/29 09:50:47;;;;;;;2.77;2.60;;;23.70;26.00;;;;;;5034635;28;20407;-64
2022/03/29 09:53:37;;;;;;;0.67;0.67;;;23.90;25.50;;;;;;5034923;28;20443;-64
2022/03/29 09:56:05;;;;;;;0.97;0.97;;;24.10;25.20;;;;;;5034879;28;20407;-64
2022/03/29 09:58:31;;;;;;;0.50;0.50;;;24.30;25.00;;;;;;5034604;28;20471;-64
2022/03/29 10:00:57;;;;;;;1.00;1.00;;;24.30;25.40;;;;;;5034282;28;20404;-64
2022/03/29 10:03:25;;;;;;;0.30;0.30;;;24.40;25.30;;;;;;5034454;28;20177;-65
2022/03/29 10:05:52;;;;;;;0.47;0.47;;;24.60;24.80;;;;;;5034372;28;20320;-65
2022/03/29 10:11:11;;;;;;;0.33;0.33;;;23.40;26.00;;;;;;5034154;28;20453;-64
2022/03/29 10:13:38;;;;;;;2.43;1.27;;;23.50;25.70;;;;;;5034176;28;20411;-64
2022/03/29 10:16:04;;;;;;;0.40;0.40;;;23.10;25.80;;;;;;5034144;28;20402;-65
2022/03/29 10:18:30;;;;;;;0.47;0.47;;;23.00;26.40;;;;;;5034067;28;20466;-64
2022/03/29 10:20:58;;;;;;;0.80;0.70;;;23.20;26.20;;;;;;5034050;28;20581;-64
2022/03/29 10:23:28;;;;;;;0.70;0.63;;;23.50;26.20;;;;;;5034320;28;20421;-64
2022/03/29 10:25:55;;;;;;;0.90;0.90;;;23.90;26.50;;;;;;5034309;28;20922;-64
2022/03/29 10:28:25;;;;;;;0.30;0.30;;;24.00;25.30;;;;;;5034093;28;20850;-65
2022/03/29 10:30:51;;;;;;;0.30;0.30;;;24.40;26.30;;;;;;5034031;28;20423;-64
2022/03/29 10:33:31;;;;;;;9.10;2.00;;;24.90;26.50;;;;;;5034172;28;20421;-65
2022/03/29 10:36:00;;;;;;;3.63;3.33;;;24.90;24.60;;;;;;5034589;28;20203;-63
2022/03/29 10:38:47;;;;;;;0.57;0.57;;;24.80;24.70;;;;;;5033771;28;20511;-64
2022/03/29 10:41:32;;;;;;;0.60;0.60;;;23.80;24.90;;;;;;5033733;28;20412;-64
2022/03/29 10:44:08;;;;;;;0.43;0.43;;;23.20;25.40;;;;;;5033776;28;20450;-64
2022/03/29 10:46:50;;;;;;;0.30;0.30;;;23.10;26.20;;;;;;5033939;28;20498;-64
2022/03/29 10:49:18;;;;;;;0.40;0.40;;;22.50;25.60;;;;;;5033672;28;20927;-64
2022/03/29 10:51:44;;;;;;;0.40;0.40;;;21.40;26.50;;;;;;5033922;28;20405;-64
2022/03/29 10:54:28;;;;;;;14.70;1.33;;;21.20;27.30;;;;;;5033765;28;20464;-64
2022/03/29 10:56:59;;;;;;;0.40;0.40;;;21.30;27.20;;;;;;5033610;28;20406;-65
2022/03/29 10:59:29;;;;;;;0.50;0.50;;;21.30;28.10;;;;;;5033446;28;20411;-65
2022/03/29 11:02:16;;;;;;;0.50;0.50;;;21.80;27.20;;;;;;5033601;28;20459;-65
2022/03/29 11:05:12;;;;;;;2.00;1.90;;;21.70;26.90;;;;;;5033734;28;20501;-64
2022/03/29 11:08:00;;;;;;;0.50;0.50;;;22.00;27.20;;;;;;5033630;28;20420;-64
2022/03/29 11:10:44;;;;;;;0.30;0.30;;;20.60;27.30;;;;;;5032717;28;20444;-64
2022/03/29 11:13:34;;;;;;;0.40;0.40;;;20.20;28.10;;;;;;5033559;28;20973;-64
2022/03/29 11:16:20;;;;;;;1.83;0.73;;;20.30;28.30;;;;;;5033771;28;20499;-64
2022/03/29 11:18:46;;;;;;;0.30;0.30;;;19.80;28.30;;;;;;5033044;28;20549;-64
2022/03/29 11:21:34;;;;;;;0.30;0.30;;;19.60;28.80;;;;;;5033036;28;20963;-64
2022/03/29 11:24:01;;;;;;;0.40;0.40;;;20.00;28.70;;;;;;5036824;28;20408;-64
2022/03/29 11:26:27;;;;;;;0.50;0.50;;;20.40;28.60;;;;;;5039843;28;20769;-63
2022/03/29 11:28:56;;;;;;;0.30;0.30;;;20.30;28.40;;;;;;5039651;28;20476;-64
2022/03/29 11:31:23;;;;;;;0.40;0.40;;;20.10;28.60;;;;;;5039943;28;20431;-64
2022/03/29 11:33:50;;;;;;;0.30;0.30;;;20.40;28.60;;;;;;5039898;28;20432;-64
2022/03/29 11:36:19;;;;;;;0.70;0.70;;;20.30;28.00;;;;;;5039984;28;20498;-64
2022/03/29 11:38:45;;;;;;;0.70;0.70;;;20.00;27.50;;;;;;5039800;28;20491;-64
2022/03/29 11:41:42;;;;;;;0.60;0.60;;;19.90;28.00;;;;;;5039574;28;20408;-64
2022/03/29 11:44:08;;;;;;;0.60;0.60;;;19.50;28.60;;;;;;5039401;28;20418;-65
2022/03/29 11:47:03;;;;;;;0.30;0.30;;;19.10;28.80;;;;;;5039858;28;20413;-64
2022/03/29 11:49:39;;;;;;;0.30;0.30;;;19.70;29.10;;;;;;5039019;28;20202;-64
2022/03/29 11:52:11;;;;;;;0.30;0.30;;;20.10;28.80;;;;;;5039797;28;20432;-64
2022/03/29 11:54:51;;;;;;;0.30;0.30;;;20.10;29.00;;;;;;5039869;28;20430;-64
2022/03/29 11:57:19;;;;;;;0.87;0.87;;;20.40;28.00;;;;;;5039619;28;20995;-64
2022/03/29 11:59:45;;;;;;;0.30;0.30;;;20.50;28.40;;;;;;5039371;28;20466;-64
2022/03/29 12:02:10;;;;;;;0.30;0.30;;;20.50;28.10;;;;;;5039812;28;20477;-65
2022/03/29 12:04:39;;;;;;;0.30;0.30;;;20.10;28.10;;;;;;5039704;28;20186;-64
2022/03/29 12:07:05;;;;;;;0.30;0.30;;;19.50;28.60;;;;;;5039572;28;20255;-64
2022/03/29 12:09:31;;;;;;;0.40;0.40;;;19.00;28.90;;;;;;5039451;28;20504;-64
2022/03/29 12:12:00;;;;;;;0.60;0.60;;;18.50;29.70;;;;;;5039649;28;20406;-64
2022/03/29 12:14:26;;;;;;;0.30;0.30;;;18.30;29.90;;;;;;5040139;28;20922;-64
2022/03/29 12:16:53;;;;;;;1.23;1.23;;;18.50;29.80;;;;;;5039392;28;20413;-65
2022/03/29 12:19:26;;;;;;;0.40;0.40;;;18.30;29.50;;;;;;5039426;28;20409;-64
2022/03/29 12:22:11;;;;;;;0.40;0.40;;;18.00;29.80;;;;;;5039440;28;20433;-64
2022/03/29 12:24:42;;;;;;;0.30;0.30;;;17.80;29.90;;;;;;5039622;28;20394;-65
2022/03/29 12:27:14;;;;;;;1.90;1.80;;;17.80;30.10;;;;;;5039113;28;20487;-64
2022/03/29 12:30:01;;;;;;;0.40;0.40;;;18.30;30.20;;;;;;5039393;28;20489;-64
2022/03/29 12:32:28;;;;;;;0.30;0.30;;;18.30;30.10;;;;;;5039518;28;20958;-64
2022/03/29 12:35:03;;;;;;;0.90;0.90;;;18.60;30.00;;;;;;5037478;28;20410;-64
2022/03/29 12:37:29;;;;;;;0.30;0.30;;;18.60;29.30;;;;;;5036280;28;20456;-64
2022/03/29 12:40:04;;;;;;;0.40;0.40;;;18.70;29.20;;;;;;5036057;28;20496;-64
2022/03/29 12:42:33;;;;;;;0.30;0.30;;;19.00;29.40;;;;;;5036285;28;20404;-64
2022/03/29 12:45:00;;;;;;;0.40;0.40;;;19.30;29.10;;;;;;5036186;28;20402;-64
2022/03/29 12:47:28;;;;;;;0.30;0.30;;;19.50;28.90;;;;;;5036051;28;20926;-64
2022/03/29 12:49:54;;;;;;;0.30;0.30;;;19.10;28.60;;;;;;5035802;28;20405;-64
2022/03/29 12:52:20;;;;;;;0.30;0.30;;;19.00;29.00;;;;;;5035987;28;20405;-64
2022/03/29 12:54:52;;;;;;;0.30;0.30;;;18.80;29.30;;;;;;5036250;28;20406;-64
2022/03/29 12:57:22;;;;;;;0.30;0.30;;;18.30;29.30;;;;;;5035783;28;20523;-64
2022/03/29 12:59:52;;;;;;;0.77;0.77;;;18.30;29.60;;;;;;5034448;28;20911;-64
2022/03/29 13:02:25;;;;;;;0.50;0.50;;;18.40;29.60;;;;;;5036191;28;20405;-64
2022/03/29 13:05:02;;;;;;;0.93;0.93;;;18.30;29.50;;;;;;5035969;28;20903;-64
2022/03/29 13:07:51;;;;;;;0.53;0.53;;;18.20;29.90;;;;;;5035761;28;20447;-65
2022/03/29 13:10:31;;;;;;;0.30;0.30;;;18.00;30.00;;;;;;5035441;28;20402;-64
2022/03/29 13:13:00;;;;;;;2.70;2.50;;;18.10;29.70;;;;;;5035767;28;20783;-64